Time;durP1;ratioP1;P1;durP2;ratioP2;P2;SDS_P1;SDS_P2;PMS_P1;PMS_P2;Temp;Humidity;BMP_temperature;BMP_pressure;BME280_temperature;BME280_humidity;BME280_pressure;Samples;Min_cycle;Max_cycle;Signal;HPM_P1;HPM_P2
2021/10/29 00:01:02;;;;;;;24.05;12.38;;;;;;;4.83;95.25;100205.47;5007233;28;20060;-66
2021/10/29 00:03:47;;;;;;;22.25;12.40;;;;;;;4.81;96.22;100194.09;5001987;28;20049;-64
2021/10/29 00:06:34;;;;;;;27.90;15.10;;;;;;;4.95;96.30;100193.97;5001491;28;20053;-66
2021/10/29 00:09:18;;;;;;;25.30;13.63;;;;;;;4.92;96.09;100199.50;5000578;28;20143;-65
2021/10/29 00:12:04;;;;;;;23.92;12.52;;;;;;;4.88;95.87;100200.72;5000471;28;20416;-65
2021/10/29 00:14:50;;;;;;;23.08;12.85;;;;;;;4.86;96.34;100207.94;5002248;28;20060;-64
2021/10/29 00:17:36;;;;;;;;;;;;;;;5.00;96.15;100206.97;4993869;28;20138;-63
2021/10/29 00:20:21;;;;;;;29.02;13.60;;;;;;;5.03;95.76;100203.22;4992835;28;19932;-66
2021/10/29 00:23:07;;;;;;;29.67;14.65;;;;;;;5.10;95.38;100202.69;4998378;28;20101;-65
2021/10/29 00:25:52;;;;;;;;;;;;;;;4.90;94.99;100198.78;5004638;28;20061;-62
2021/10/29 00:28:37;;;;;;;26.17;13.32;;;;;;;5.02;95.60;100198.88;5001155;28;19928;-65
2021/10/29 00:31:22;;;;;;;31.05;14.75;;;;;;;5.06;95.30;100205.66;5002186;28;20064;-66
2021/10/29 00:34:07;;;;;;;26.27;12.82;;;;;;;4.96;95.74;100195.66;5002525;28;20076;-65
2021/10/29 00:36:52;;;;;;;26.83;14.20;;;;;;;4.92;95.86;100194.19;5003096;28;20057;-66
2021/10/29 00:39:38;;;;;;;27.13;13.00;;;;;;;4.73;95.80;100188.47;4994910;28;20056;-64
2021/10/29 00:42:24;;;;;;;;;;;;;;;4.93;96.85;100190.56;5003841;28;20061;-65
2021/10/29 00:45:11;;;;;;;32.72;14.27;;;;;;;4.75;96.35;100181.25;5002789;28;20454;-65
2021/10/29 00:47:56;;;;;;;24.02;12.77;;;;;;;4.96;95.23;100187.69;4995745;28;20078;-64
2021/10/29 00:50:41;;;;;;;28.92;15.27;;;;;;;4.93;95.97;100195.03;5006325;28;20060;-65
2021/10/29 00:53:27;;;;;;;28.27;14.57;;;;;;;4.90;95.97;100185.47;4996270;28;20062;-67
2021/10/29 00:56:14;;;;;;;29.00;14.02;;;;;;;5.08;95.08;100193.09;5000987;28;20176;-66
2021/10/29 00:59:00;;;;;;;31.05;15.32;;;;;;;5.02;95.38;100189.06;5009750;28;20060;-66
2021/10/29 01:01:45;;;;;;;30.58;15.95;;;;;;;4.89;95.51;100178.47;5006017;28;20064;-65
2021/10/29 01:04:30;;;;;;;37.33;16.73;;;;;;;4.93;95.82;100182.59;5002242;28;20045;-66
2021/10/29 01:07:15;;;;;;;29.85;15.80;;;;;;;4.96;95.45;100179.72;4993593;28;20566;-65
2021/10/29 01:10:00;;;;;;;36.88;17.83;;;;;;;4.80;96.18;100168.47;4993763;28;20198;-65
2021/10/29 01:12:46;;;;;;;36.40;14.63;;;;;;;4.82;95.60;100179.00;5002390;28;20053;-66
2021/10/29 01:15:32;;;;;;;34.92;15.85;;;;;;;4.75;95.73;100181.25;4993311;28;20058;-63
2021/10/29 01:18:17;;;;;;;40.00;16.80;;;;;;;4.75;96.51;100170.63;5000335;28;20073;-66
2021/10/29 01:21:04;;;;;;;33.30;15.93;;;;;;;4.81;96.79;100172.84;4994822;28;20554;-65
2021/10/29 01:23:49;;;;;;;33.83;17.52;;;;;;;4.92;95.99;100177.38;4994172;28;20065;-67
2021/10/29 01:26:34;;;;;;;35.23;16.30;;;;;;;4.98;95.83;100176.97;5003071;28;20053;-65
2021/10/29 01:29:20;;;;;;;32.70;15.53;;;;;;;4.70;95.85;100167.44;5001971;28;20057;-65
2021/10/29 01:32:06;;;;;;;33.10;15.45;;;;;;;4.55;96.36;100164.06;5007370;28;20779;-67
2021/10/29 01:34:51;;;;;;;32.97;15.90;;;;;;;4.47;97.43;100165.53;5000661;28;20196;-65
2021/10/29 01:37:38;;;;;;;26.02;13.93;;;;;;;4.42;97.04;100163.22;4993916;28;20053;-63
2021/10/29 01:40:24;;;;;;;29.10;15.50;;;;;;;4.38;97.50;100162.59;5001738;28;20061;-62
2021/10/29 01:43:09;;;;;;;33.17;16.48;;;;;;;4.45;97.20;100164.78;4994347;28;20432;-62
2021/10/29 01:45:54;;;;;;;30.05;15.30;;;;;;;4.34;97.21;100166.38;5001692;28;20132;-62
2021/10/29 01:48:41;;;;;;;36.33;15.77;;;;;;;4.27;97.72;100165.13;5000130;28;20132;-62
2021/10/29 01:51:27;;;;;;;36.03;16.67;;;;;;;4.49;97.08;100167.13;5003265;28;20483;-62
2021/10/29 01:54:13;;;;;;;32.30;14.15;;;;;;;4.46;96.62;100170.00;5000916;28;20058;-63
2021/10/29 01:56:59;;;;;;;33.53;15.80;;;;;;;4.68;96.83;100170.19;4999086;28;20520;-62
2021/10/29 01:59:44;;;;;;;37.60;16.15;;;;;;;4.42;96.67;100167.69;4995810;28;20116;-63
2021/10/29 02:02:29;;;;;;;37.60;16.95;;;;;;;4.34;97.71;100163.72;4993785;28;20539;-62
2021/10/29 02:05:14;;;;;;;31.98;14.98;;;;;;;4.27;98.14;100173.09;4994414;28;20056;-60
2021/10/29 02:07:59;;;;;;;34.33;17.42;;;;;;;4.12;98.17;100166.16;4996392;28;20073;-60
2021/10/29 02:10:45;;;;;;;35.63;16.63;;;;;;;4.19;97.37;100171.91;4993453;28;20057;-60
2021/10/29 02:13:30;;;;;;;37.75;17.65;;;;;;;4.22;98.57;100169.91;4992748;28;20063;-64
2021/10/29 02:16:16;;;;;;;36.95;18.13;;;;;;;4.19;98.36;100156.84;4999170;28;20072;-61
2021/10/29 02:19:01;;;;;;;37.72;18.08;;;;;;;4.07;99.09;100169.16;5003583;28;20527;-60
2021/10/29 02:21:46;;;;;;;38.00;17.23;;;;;;;3.98;98.22;100168.91;5003232;28;20128;-61
2021/10/29 02:24:34;;;;;;;32.40;15.98;;;;;;;3.85;98.35;100168.91;5006267;28;20120;-61
2021/10/29 02:27:20;;;;;;;40.10;16.45;;;;;;;3.84;98.00;100179.63;5003470;28;20459;-61
2021/10/29 02:30:07;;;;;;;35.10;17.67;;;;;;;3.85;98.87;100173.34;5001029;28;20140;-61
2021/10/29 02:32:52;;;;;;;31.95;15.38;;;;;;;3.74;98.71;100171.41;4998122;28;20463;-63
2021/10/29 02:35:37;;;;;;;32.60;15.57;;;;;;;3.77;99.33;100172.06;5001527;28;20054;-67
2021/10/29 02:38:22;;;;;;;36.80;17.90;;;;;;;3.67;99.18;100160.38;5000775;28;20057;-62
2021/10/29 02:41:08;;;;;;;38.33;19.40;;;;;;;3.71;100.00;100167.19;5000626;28;20574;-63
2021/10/29 02:43:54;;;;;;;32.45;16.38;;;;;;;3.55;98.63;100161.16;4998594;28;20427;-63
2021/10/29 02:46:40;;;;;;;34.78;16.52;;;;;;;3.48;98.90;100162.53;5002933;28;20077;-61
2021/10/29 02:49:25;;;;;;;43.25;19.52;;;;;;;3.70;99.68;100169.94;4992489;28;20108;-59
2021/10/29 02:52:10;;;;;;;42.58;16.95;;;;;;;3.54;98.93;100164.78;4992675;28;20148;-62
2021/10/29 02:54:55;;;;;;;36.88;16.05;;;;;;;3.49;99.74;100162.44;5008328;28;20414;-60
2021/10/29 02:57:41;;;;;;;34.67;15.88;;;;;;;3.42;99.11;100160.28;4998788;28;20096;-62
2021/10/29 03:00:27;;;;;;;35.80;16.60;;;;;;;3.43;99.84;100161.97;4990951;28;20080;-63
2021/10/29 03:03:12;;;;;;;35.25;15.23;;;;;;;3.36;99.40;100163.34;5000857;28;20053;-63
2021/10/29 03:05:58;;;;;;;33.10;15.73;;;;;;;3.39;99.71;100163.13;4992635;28;20178;-61
2021/10/29 03:08:42;;;;;;;40.78;18.40;;;;;;;3.56;100.00;100157.59;4999563;28;20132;-66
2021/10/29 03:11:28;;;;;;;35.42;17.33;;;;;;;3.40;99.16;100159.53;5004516;28;20057;-61
2021/10/29 03:14:13;;;;;;;34.42;17.17;;;;;;;3.25;99.64;100164.03;5003897;28;20049;-63
2021/10/29 03:16:59;;;;;;;35.60;17.00;;;;;;;3.33;100.00;100160.91;5001005;28;20116;-60
2021/10/29 03:19:44;;;;;;;37.20;17.05;;;;;;;3.25;99.84;100163.19;4997837;28;20056;-64
2021/10/29 03:22:29;;;;;;;44.38;19.30;;;;;;;3.29;100.00;100162.03;5001741;28;20428;-64
2021/10/29 03:25:14;;;;;;;38.25;18.65;;;;;;;3.21;99.61;100166.06;5003333;28;20052;-63
2021/10/29 03:27:59;;;;;;;42.95;18.00;;;;;;;3.39;100.00;100171.09;4991428;28;20076;-66
2021/10/29 03:30:44;;;;;;;39.00;18.73;;;;;;;3.20;99.69;100168.81;5003005;28;20168;-64
2021/10/29 03:33:35;;;;;;;49.65;18.98;;;;;;;3.21;100.00;100163.41;4997573;28;20141;-66
2021/10/29 03:36:20;;;;;;;45.38;18.17;;;;;;;3.24;100.00;100167.66;4991567;28;20057;-66
2021/10/29 03:39:07;;;;;;;42.37;19.07;;;;;;;3.15;100.00;100165.59;5000101;28;20523;-67
2021/10/29 03:41:56;;;;;;;42.83;19.40;;;;;;;3.20;100.00;100163.50;4995903;28;20085;-67
2021/10/29 03:44:47;;;;;;;46.95;19.35;;;;;;;3.14;100.00;100171.84;5004003;28;20423;-65
2021/10/29 03:47:40;;;;;;;48.08;20.23;;;;;;;3.24;100.00;100162.34;5004266;28;20077;-63
2021/10/29 03:50:29;;;;;;;39.55;18.63;;;;;;;3.10;100.00;100159.75;4993555;28;20057;-66
2021/10/29 03:53:25;;;;;;;42.53;19.17;;;;;;;3.08;100.00;100162.50;4995372;28;20105;-66
2021/10/29 03:56:17;;;;;;;48.10;20.20;;;;;;;3.09;100.00;100166.84;5003597;28;20168;-60
2021/10/29 03:59:02;;;;;;;39.70;17.73;;;;;;;3.05;100.00;100167.13;4991193;28;20136;-61
2021/10/29 04:01:47;;;;;;;54.17;20.65;;;;;;;3.09;100.00;100161.53;4990753;28;20081;-64
2021/10/29 04:04:32;;;;;;;55.70;20.33;;;;;;;3.00;100.00;100167.44;4999695;28;20061;-62
2021/10/29 04:07:19;;;;;;;50.25;20.73;;;;;;;3.04;100.00;100160.13;5004066;28;20143;-61
2021/10/29 04:10:05;;;;;;;60.45;22.77;;;;;;;3.21;100.00;100155.44;4995884;28;20181;-63
2021/10/29 04:12:51;;;;;;;56.67;22.13;;;;;;;3.26;100.00;100156.94;4992242;28;20061;-63
2021/10/29 04:15:37;;;;;;;56.92;21.90;;;;;;;3.36;100.00;100150.09;4995609;28;20056;-65
2021/10/29 04:18:24;;;;;;;58.93;21.67;;;;;;;3.35;100.00;100157.19;5005233;28;20061;-65
2021/10/29 04:21:09;;;;;;;58.78;22.40;;;;;;;3.25;100.00;100163.19;4991289;28;20320;-66
2021/10/29 04:23:56;;;;;;;56.20;20.30;;;;;;;3.10;100.00;100165.91;4992126;28;20574;-62
2021/10/29 04:26:41;;;;;;;49.28;21.52;;;;;;;3.09;100.00;100176.59;4991463;28;20347;-67
2021/10/29 04:29:34;;;;;;;49.87;20.10;;;;;;;3.09;100.00;100164.19;4998860;28;20534;-61
2021/10/29 04:32:19;;;;;;;54.58;22.75;;;;;;;3.09;100.00;100171.31;4996914;28;20809;-63
2021/10/29 04:35:05;;;;;;;48.33;20.10;;;;;;;2.98;100.00;100173.78;4990207;28;20698;-67
2021/10/29 04:37:50;;;;;;;67.30;23.05;;;;;;;2.96;100.00;100171.22;5000486;28;20068;-66
2021/10/29 04:40:38;;;;;;;54.35;21.52;;;;;;;2.91;100.00;100165.34;5007995;28;20068;-62
2021/10/29 04:43:23;;;;;;;60.70;22.42;;;;;;;2.90;100.00;100179.56;4993036;28;20208;-67
2021/10/29 04:46:08;;;;;;;58.63;22.83;;;;;;;2.92;100.00;100169.69;4999338;28;20057;-61
2021/10/29 04:48:53;;;;;;;50.40;20.55;;;;;;;2.92;100.00;100172.34;4991357;28;20061;-61
2021/10/29 04:54:15;;;;;;;56.30;22.00;;;;;;;2.96;100.00;100170.34;4958085;28;20098;-64
2021/10/29 04:57:01;;;;;;;59.92;22.70;;;;;;;3.14;100.00;100162.09;4963510;28;20061;-64
2021/10/29 04:59:46;;;;;;;55.97;22.83;;;;;;;3.10;100.00;100157.94;4969857;28;20097;-63
2021/10/29 05:02:31;;;;;;;61.38;23.85;;;;;;;3.02;100.00;100168.19;4968464;28;20069;-65
2021/10/29 05:05:16;;;;;;;62.20;23.20;;;;;;;3.05;100.00;100173.28;4958772;28;20050;-64
2021/10/29 05:08:01;;;;;;;62.65;23.52;;;;;;;3.03;100.00;100172.53;4972517;28;20058;-64
2021/10/29 05:10:46;;;;;;;66.22;22.95;;;;;;;3.07;100.00;100159.91;4969058;28;20444;-65
2021/10/29 05:13:33;;;;;;;60.53;23.48;;;;;;;2.98;100.00;100160.53;4973134;28;20058;-62
2021/10/29 05:16:19;;;;;;;52.85;21.38;;;;;;;2.88;100.00;100160.25;4972012;28;20054;-64
2021/10/29 05:19:04;;;;;;;63.35;23.77;;;;;;;2.98;100.00;100160.53;4974267;28;20133;-64
2021/10/29 05:21:49;;;;;;;56.17;23.80;;;;;;;2.92;100.00;100165.25;4970833;28;20061;-63
2021/10/29 05:24:34;;;;;;;52.63;22.75;;;;;;;2.93;100.00;100161.66;4962184;28;20321;-65
2021/10/29 05:27:20;;;;;;;68.03;22.33;;;;;;;3.04;100.00;100174.22;4966411;28;20117;-64
2021/10/29 05:30:08;;;;;;;57.53;20.98;;;;;;;2.94;100.00;100165.16;4967177;28;20309;-63
2021/10/29 05:32:54;;;;;;;54.83;21.52;;;;;;;3.05;100.00;100160.00;4967418;28;20193;-63
2021/10/29 05:35:39;;;;;;;54.47;22.50;;;;;;;2.91;100.00;100165.34;4968581;28;20049;-65
2021/10/29 05:38:24;;;;;;;49.35;21.48;;;;;;;2.98;100.00;100171.13;4968111;28;20054;-64
2021/10/29 05:41:11;;;;;;;59.78;22.67;;;;;;;2.86;100.00;100172.75;4967203;28;20122;-63
2021/10/29 05:43:56;;;;;;;66.47;23.80;;;;;;;2.81;100.00;100170.38;4968181;28;20540;-64
2021/10/29 05:46:43;;;;;;;55.42;20.35;;;;;;;2.74;100.00;100176.19;4966377;28;20049;-62
2021/10/29 05:49:28;;;;;;;58.33;22.77;;;;;;;2.66;100.00;100176.66;4968607;28;20125;-65
2021/10/29 05:52:16;;;;;;;64.68;21.27;;;;;;;2.71;100.00;100171.06;4966936;28;20077;-63
2021/10/29 05:55:14;;;;;;;45.17;20.67;;;;;;;2.54;100.00;100178.25;4966212;28;20125;-65
2021/10/29 05:57:59;;;;;;;40.25;17.98;;;;;;;2.44;100.00;100178.91;4967469;28;20054;-64
2021/10/29 06:00:44;;;;;;;42.47;18.55;;;;;;;2.41;100.00;100177.31;4968063;28;20165;-65
2021/10/29 06:03:31;;;;;;;45.03;18.88;;;;;;;2.36;100.00;100182.03;4966789;28;20526;-63
2021/10/29 06:06:16;;;;;;;54.67;21.48;;;;;;;2.41;100.00;100177.31;4966620;28;20066;-65
2021/10/29 06:09:01;;;;;;;45.97;19.15;;;;;;;2.42;100.00;100180.81;4966748;28;20230;-61
2021/10/29 06:11:46;;;;;;;55.78;19.52;;;;;;;2.50;100.00;100170.59;4965688;28;20069;-64
2021/10/29 06:14:31;;;;;;;58.92;22.55;;;;;;;2.68;100.00;100168.59;4966695;28;20054;-64
2021/10/29 06:17:18;;;;;;;53.63;21.13;;;;;;;2.77;100.00;100163.56;4966047;28;20500;-64
2021/10/29 06:20:05;;;;;;;72.00;23.35;;;;;;;2.86;100.00;100163.00;4966364;28;20057;-63
2021/10/29 06:22:52;;;;;;;55.10;22.00;;;;;;;2.79;100.00;100172.28;4968944;28;20100;-64
2021/10/29 06:25:42;;;;;;;;;;;;;;;2.86;100.00;100170.09;4969585;28;20065;-63
2021/10/29 06:28:29;;;;;;;58.72;21.52;;;;;;;2.98;100.00;100163.19;4968492;28;19929;-64
2021/10/29 06:31:16;;;;;;;60.53;21.92;;;;;;;2.99;100.00;100176.34;4970164;28;20066;-63
2021/10/29 06:34:01;;;;;;;77.07;23.90;;;;;;;3.06;100.00;100174.13;4969610;28;20560;-64
2021/10/29 06:36:48;;;;;;;79.07;25.55;;;;;;;3.25;100.00;100177.31;4967858;28;20072;-64
2021/10/29 06:39:34;;;;;;;88.75;26.58;;;;;;;3.29;100.00;100176.16;4968395;28;20097;-63
2021/10/29 06:42:22;;;;;;;78.72;25.63;;;;;;;3.25;100.00;100181.75;4968276;28;20126;-65
2021/10/29 06:45:20;;;;;;;68.18;24.15;;;;;;;3.30;100.00;100184.94;4968743;28;20186;-66
2021/10/29 06:48:18;;;;;;;78.65;24.88;;;;;;;3.36;100.00;100187.22;4967499;28;20117;-64
2021/10/29 07:00:19;;;;;;;86.35;26.92;;;;;;;3.72;100.00;100186.59;4970060;28;20110;-64
2021/10/29 07:03:32;;;;;;;68.72;23.95;;;;;;;3.86;99.71;100185.69;4970302;28;20137;-64
2021/10/29 07:40:04;;;;;;;40.40;19.17;;;;;;;4.96;95.02;100205.47;4966113;28;20152;-63
2021/10/29 07:42:54;;;;;;;46.92;20.15;;;;;;;4.99;94.89;100200.78;4966224;28;20170;-63
2021/10/29 07:45:40;;;;;;;39.90;18.80;;;;;;;5.14;93.22;100192.66;4963764;28;20101;-64
2021/10/29 07:48:25;;;;;;;39.10;18.08;;;;;;;5.26;92.87;100203.25;4964445;28;20069;-61
2021/10/29 07:51:10;;;;;;;39.33;18.57;;;;;;;5.24;93.42;100196.38;4964689;28;20058;-63
2021/10/29 07:53:56;;;;;;;40.23;17.23;;;;;;;5.29;93.14;100191.53;4964748;28;20329;-63
2021/10/29 07:56:42;;;;;;;39.97;18.15;;;;;;;5.36;92.06;100194.63;4965563;28;20174;-63
2021/10/29 07:59:27;;;;;;;;;;;;;;;5.39;91.56;100189.91;4962417;28;20076;-63
2021/10/29 08:02:12;;;;;;;38.80;17.83;;;;;;;5.48;91.64;100194.56;4962249;28;20425;-63
2021/10/29 08:04:57;;;;;;;37.90;17.63;;;;;;;5.56;92.64;100197.53;4961712;28;20096;-62
2021/10/29 08:07:43;;;;;;;38.43;16.87;;;;;;;5.71;92.27;100192.03;4967465;28;20054;-64
2021/10/29 08:10:28;;;;;;;33.25;17.15;;;;;;;5.90;91.33;100196.78;4968893;28;20329;-63
2021/10/29 08:13:15;;;;;;;33.60;16.05;;;;;;;6.08;90.27;100182.13;4967428;28;20062;-64
2021/10/29 08:16:03;;;;;;;36.92;16.88;;;;;;;6.33;88.31;100189.09;4961151;28;20070;-64
2021/10/29 08:18:48;;;;;;;36.67;15.05;;;;;;;6.32;88.68;100182.06;4966912;28;20054;-63
2021/10/29 08:21:33;;;;;;;30.35;16.73;;;;;;;6.43;88.49;100182.09;4966381;28;20425;-64
2021/10/29 08:24:18;;;;;;;38.60;16.88;;;;;;;6.51;88.59;100173.47;4967621;28;20425;-64
2021/10/29 08:27:04;;;;;;;31.48;15.82;;;;;;;6.71;88.17;100181.59;4967740;28;20053;-64
2021/10/29 08:29:50;;;;;;;30.53;15.67;;;;;;;6.76;89.09;100180.41;4968382;28;20532;-64
2021/10/29 08:32:38;;;;;;;30.50;15.88;;;;;;;6.87;89.22;100183.09;4964532;28;20135;-64
2021/10/29 08:35:23;;;;;;;31.48;16.00;;;;;;;7.06;89.49;100182.44;4965912;28;20062;-62
2021/10/29 08:38:08;;;;;;;30.08;15.20;;;;;;;7.22;86.12;100170.44;4967274;28;20523;-65
2021/10/29 08:40:54;;;;;;;26.15;14.57;;;;;;;7.33;86.71;100170.38;4966125;28;20145;-63
2021/10/29 08:43:39;;;;;;;28.38;14.90;;;;;;;7.44;85.89;100168.66;4970288;28;20167;-64
2021/10/29 08:46:28;;;;;;;26.88;14.10;;;;;;;7.61;84.41;100165.44;4971082;28;20058;-62
2021/10/29 08:49:15;;;;;;;28.63;14.13;;;;;;;7.77;83.48;100157.00;4971320;28;20065;-64
2021/10/29 08:52:01;;;;;;;27.65;14.02;;;;;;;7.84;83.82;100160.88;4972116;28;20527;-63
2021/10/29 08:54:46;;;;;;;28.63;13.10;;;;;;;7.94;84.82;100153.78;4972258;28;20428;-64
2021/10/29 08:57:31;;;;;;;26.60;12.77;;;;;;;8.07;82.14;100153.59;4971702;28;20571;-63
2021/10/29 09:00:19;;;;;;;24.67;13.23;;;;;;;8.17;81.92;100155.34;4969983;28;20057;-64
2021/10/29 09:03:07;;;;;;;33.83;13.77;;;;;;;8.28;82.07;100143.69;4968184;28;20053;-63
2021/10/29 09:06:05;;;;;;;24.90;12.85;;;;;;;8.35;81.87;100160.97;4965057;28;20081;-64
2021/10/29 09:09:01;;;;;;;21.17;11.50;;;;;;;8.45;83.10;100153.84;4970210;28;20058;-65
2021/10/29 09:11:58;;;;;;;23.98;11.93;;;;;;;8.59;83.03;100159.81;4969294;28;20144;-64
2021/10/29 09:33:13;;;;;;;20.33;10.50;;;;;;;9.72;77.17;100142.50;4969759;28;20053;-63
2021/10/29 09:36:01;;;;;;;18.00;9.00;;;;;;;9.92;76.93;100136.09;4963934;28;20050;-64
2021/10/29 09:38:54;;;;;;;16.60;8.95;;;;;;;9.98;74.90;100139.22;4972166;28;20065;-64
2021/10/29 09:41:41;;;;;;;15.90;9.18;;;;;;;10.12;75.21;100134.25;4971494;28;20540;-64
2021/10/29 09:44:38;;;;;;;15.68;8.98;;;;;;;10.30;72.19;100133.53;4971145;28;20062;-65
2021/10/29 09:47:27;;;;;;;16.95;8.27;;;;;;;10.40;72.93;100135.22;4970131;28;20512;-63
2021/10/29 09:50:24;;;;;;;13.88;7.68;;;;;;;10.58;73.31;100146.03;4969008;28;20202;-64
2021/10/29 09:53:12;;;;;;;13.23;7.07;;;;;;;10.73;71.39;100143.72;4969472;28;20053;-64
2021/10/29 09:56:01;;;;;;;11.88;7.25;;;;;;;10.86;72.01;100146.91;4969270;28;20057;-64
2021/10/29 09:58:48;;;;;;;14.25;6.72;;;;;;;11.05;69.51;100145.97;4969737;28;20061;-65
2021/10/29 10:01:33;;;;;;;12.65;6.72;;;;;;;11.27;70.19;100144.72;4971246;28;20061;-64
2021/10/29 10:04:19;;;;;;;14.50;7.00;;;;;;;11.32;69.17;100139.72;4971671;28;20057;-65
2021/10/29 10:07:04;;;;;;;13.60;6.55;;;;;;;11.44;67.25;100141.19;4968029;28;20097;-64
2021/10/29 10:09:52;;;;;;;12.23;6.37;;;;;;;11.60;67.11;100138.69;4971190;28;20073;-65
2021/10/29 10:12:41;;;;;;;12.40;5.38;;;;;;;11.79;66.71;100132.34;4968854;28;20062;-64
2021/10/29 10:15:27;;;;;;;9.38;5.22;;;;;;;11.95;65.96;100127.09;4968854;28;20174;-65
2021/10/29 10:18:12;;;;;;;10.45;5.43;;;;;;;12.06;66.39;100130.53;4969463;28;20121;-63
2021/10/29 10:21:01;;;;;;;10.88;5.55;;;;;;;12.18;64.96;100131.97;4962408;28;20129;-63
2021/10/29 10:23:50;;;;;;;8.38;5.22;;;;;;;12.24;64.40;100123.28;4971466;28;20066;-64
2021/10/29 10:26:49;;;;;;;12.13;5.47;;;;;;;12.29;63.84;100124.47;4969007;28;20526;-64
2021/10/29 10:29:58;;;;;;;11.32;6.18;;;;;;;12.46;63.26;100117.38;4969085;28;20515;-65
2021/10/29 10:42:39;;;;;;;7.55;4.07;;;;;;;12.81;60.48;100104.75;4967224;28;20484;-65
2021/10/29 10:45:36;;;;;;;7.70;4.13;;;;;;;13.01;59.90;100100.78;4967596;28;22994;-65
2021/10/29 10:48:25;;;;;;;6.07;3.45;;;;;;;13.20;60.30;100096.16;4966785;28;20573;-64
2021/10/29 10:54:44;;;;;;;5.70;3.55;;;;;;;13.46;59.31;100089.63;4987245;28;20053;-63
2021/10/29 10:57:38;;;;;;;6.82;3.90;;;;;;;13.48;57.77;100085.94;4989738;28;20049;-64
2021/10/29 11:00:29;;;;;;;8.63;4.00;;;;;;;13.54;56.73;100083.41;4991960;28;20153;-62
2021/10/29 11:03:44;;;;;;;6.15;3.38;;;;;;;13.71;57.46;100081.56;4990680;28;20058;-63
2021/10/29 11:06:49;;;;;;;5.68;3.65;;;;;;;13.93;56.92;100074.66;4994561;28;20060;-65
2021/10/29 11:09:59;;;;;;;6.30;3.63;;;;;;;14.02;56.43;100068.25;4994317;28;20139;-63
2021/10/29 11:13:19;;;;;;;7.40;3.08;;;;;;;14.12;55.83;100063.50;4995667;28;20090;-62
2021/10/29 11:16:05;;;;;;;9.60;4.05;;;;;;;14.06;54.91;100061.47;4994822;28;20053;-62
2021/10/29 11:18:56;;;;;;;7.93;4.10;;;;;;;14.16;56.51;100048.66;4998783;28;20053;-63
2021/10/29 11:21:49;;;;;;;5.72;3.65;;;;;;;14.28;56.91;100049.97;4985301;28;20057;-63
2021/10/29 11:24:40;;;;;;;9.35;4.63;;;;;;;14.36;57.64;100051.81;4982333;28;20072;-62
2021/10/29 11:27:26;;;;;;;8.00;4.10;;;;;;;14.42;57.03;100039.47;4987568;28;20061;-63
2021/10/29 11:30:13;;;;;;;10.60;5.22;;;;;;;14.50;58.34;100037.63;4981574;28;20064;-63
2021/10/29 11:32:59;;;;;;;10.95;5.32;;;;;;;14.59;56.80;100039.28;4987546;28;20069;-63
2021/10/29 11:35:58;;;;;;;9.80;4.68;;;;;;;14.70;57.17;100023.72;4991788;28;20117;-63
2021/10/29 11:38:44;;;;;;;10.05;4.72;;;;;;;14.77;57.09;100017.41;4989835;28;20140;-64
2021/10/29 11:41:31;;;;;;;9.85;4.72;;;;;;;14.73;55.84;100016.09;4989980;28;20062;-64
2021/10/29 11:44:19;;;;;;;11.43;5.88;;;;;;;14.75;54.72;100019.44;4981026;28;20248;-64
2021/10/29 11:47:06;;;;;;;9.60;5.60;;;;;;;14.78;55.20;100002.03;4989899;28;20061;-63
2021/10/29 11:49:51;;;;;;;10.18;6.65;;;;;;;14.77;57.00;100001.19;4990177;28;20147;-62
2021/10/29 11:52:37;;;;;;;11.48;6.95;;;;;;;14.76;56.60;99996.81;4988273;28;20069;-63
2021/10/29 11:55:34;;;;;;;12.88;6.50;;;;;;;14.74;55.61;100006.13;4981930;28;20440;-64
2021/10/29 11:58:23;;;;;;;16.92;8.98;;;;;;;14.62;57.95;100000.28;4989650;28;20049;-63
2021/10/29 12:01:16;;;;;;;15.20;8.15;;;;;;;14.58;59.72;99993.53;4990926;28;20111;-64
2021/10/29 12:07:14;;;;;;;18.77;10.68;;;;;;;14.23;61.53;100003.78;4957734;28;20107;-63
2021/10/29 12:10:04;;;;;;;18.75;10.63;;;;;;;14.39;60.43;99999.31;4991108;28;20506;-64
2021/10/29 12:12:53;;;;;;;16.77;9.77;;;;;;;14.31;61.23;99995.63;4988894;28;20069;-63
2021/10/29 12:15:38;;;;;;;15.48;9.57;;;;;;;14.25;61.54;99988.25;4984239;28;20439;-62
2021/10/29 12:18:26;;;;;;;14.88;9.65;;;;;;;13.89;62.02;99981.59;4989653;28;20420;-63
2021/10/29 12:21:20;;;;;;;19.65;10.18;;;;;;;13.77;62.81;99975.72;4988365;28;20221;-65
2021/10/29 12:24:09;;;;;;;17.40;10.18;;;;;;;13.75;62.82;99980.44;4989417;28;20057;-63
2021/10/29 12:26:56;;;;;;;17.30;10.23;;;;;;;13.87;63.45;99984.47;4986461;28;20104;-63
2021/10/29 12:29:44;;;;;;;17.48;9.80;;;;;;;13.73;63.10;99971.66;4986844;28;20535;-64
2021/10/29 12:54:37;;;;;;;18.08;10.95;;;;;;;13.64;64.25;99967.31;4984318;28;20065;-64
2021/10/29 13:03:59;;;;;;;19.23;12.35;;;;;;;13.47;65.04;99958.38;4987778;28;20120;-63
2021/10/29 13:06:46;;;;;;;19.02;11.73;;;;;;;13.44;65.29;99961.41;4987210;28;20117;-65
2021/10/29 13:09:35;;;;;;;24.35;13.98;;;;;;;13.28;65.02;99959.59;4986269;28;20427;-64
2021/10/29 13:12:26;;;;;;;21.02;12.63;;;;;;;13.27;65.64;99944.44;4984502;28;20116;-63
2021/10/29 13:15:13;;;;;;;17.73;11.95;;;;;;;13.22;66.20;99946.75;4992144;28;20070;-64
2021/10/29 13:18:01;;;;;;;22.48;14.13;;;;;;;13.12;65.55;99941.50;4985387;28;20125;-63
2021/10/29 13:21:09;;;;;;;23.67;13.32;;;;;;;13.09;66.48;99944.53;4984861;28;20057;-63
2021/10/29 13:27:27;;;;;;;24.58;14.80;;;;;;;12.92;66.16;99956.31;4987592;28;20053;-61
2021/10/29 13:36:43;;;;;;;23.67;14.48;;;;;;;12.73;66.90;99941.28;4989008;28;20100;-61
2021/10/29 13:51:44;;;;;;;26.10;15.95;;;;;;;14.29;60.46;99919.38;4998536;28;20062;-63
2021/10/29 13:54:39;;;;;;;25.08;14.48;;;;;;;15.32;57.13;99913.66;4992801;28;20136;-64
2021/10/29 13:57:49;;;;;;;25.90;14.95;;;;;;;15.73;54.66;99908.69;4994123;28;20525;-65
2021/10/29 14:00:55;;;;;;;22.35;15.43;;;;;;;16.16;52.83;99910.75;4997906;28;20062;-63
2021/10/29 14:04:07;;;;;;;22.80;13.38;;;;;;;16.53;51.27;99904.34;4992651;28;20085;-63
2021/10/29 14:28:32;;;;;;;24.15;13.77;;;;;;;14.00;57.86;99909.22;4987938;28;20077;-64
2021/10/29 14:31:23;;;;;;;21.00;13.65;;;;;;;13.29;60.75;99909.22;4988099;28;20547;-64
2021/10/29 14:34:12;;;;;;;20.17;13.73;;;;;;;12.74;62.75;99907.13;4988651;28;20053;-63
2021/10/29 14:37:01;;;;;;;21.17;13.73;;;;;;;12.27;64.57;99905.00;4991564;28;20100;-62
2021/10/29 14:39:54;;;;;;;22.45;14.48;;;;;;;11.91;66.00;99901.66;4987503;28;20412;-63
2021/10/29 14:42:42;;;;;;;21.70;15.07;;;;;;;11.63;67.13;99909.06;4993812;28;20127;-63
2021/10/29 14:45:31;;;;;;;23.23;14.02;;;;;;;11.40;68.45;99909.56;4987028;28;20181;-64
2021/10/29 14:48:28;;;;;;;23.52;14.73;;;;;;;11.25;69.13;99908.47;4989931;28;20065;-63
2021/10/29 14:51:35;;;;;;;22.35;13.90;;;;;;;11.10;70.10;99918.91;4993956;28;20064;-63
2021/10/29 15:00:41;;;;;;;26.20;16.10;;;;;;;10.71;71.57;99922.94;4989370;28;20486;-63
2021/10/29 15:03:49;;;;;;;23.33;14.13;;;;;;;10.61;72.08;99925.66;4989806;28;20054;-66
2021/10/29 15:06:57;;;;;;;27.27;16.70;;;;;;;10.44;73.22;99916.63;4988639;28;20148;-63
2021/10/29 15:16:07;;;;;;;23.55;16.02;;;;;;;10.06;74.55;99912.25;4994157;28;20112;-62
2021/10/29 15:25:15;;;;;;;22.40;13.02;;;;;;;9.69;76.49;99914.97;4985081;28;20463;-62
2021/10/29 15:28:11;;;;;;;17.90;11.80;;;;;;;9.53;77.71;99912.91;4994473;28;20535;-63
2021/10/29 15:31:01;;;;;;;;;;;;;;;9.32;78.81;99913.09;4991692;28;20177;-63
2021/10/29 15:43:14;;;;;;;22.67;13.23;;;;;;;8.88;80.47;99924.41;4981762;28;20113;-65
2021/10/29 15:46:07;;;;;;;20.98;12.98;;;;;;;8.74;81.29;99920.31;4994182;28;20172;-63
2021/10/29 15:48:56;;;;;;;22.02;13.88;;;;;;;8.65;81.46;99921.19;4985792;28;20511;-62
2021/10/29 15:51:45;;;;;;;25.58;13.85;;;;;;;8.58;81.96;99920.88;4984342;28;20113;-62
2021/10/29 15:54:37;;;;;;;24.25;14.90;;;;;;;8.48;83.11;99920.88;4984231;28;20148;-62